Time;durP1;ratioP1;P1;durP2;ratioP2;P2;SDS_P1;SDS_P2;PMS_P1;PMS_P2;Temp;Humidity;BMP_temperature;BMP_pressure;BME280_temperature;BME280_humidity;BME280_pressure;Samples;Min_cycle;Max_cycle;Signal;HPM_P1;HPM_P2
2022/06/18 00:01:50;;;;;;;1.50;1.40;;;;;;;20.08;53.25;101140.44;4960977;28;20280;-82
2022/06/18 00:04:19;;;;;;;1.13;1.13;;;;;;;20.09;53.12;101155.41;4961078;28;20204;-82
2022/06/18 00:06:50;;;;;;;1.90;1.30;;;;;;;20.01;53.30;101128.41;4960621;28;20260;-82
2022/06/18 00:09:20;;;;;;;1.53;1.43;;;;;;;20.07;52.93;101143.16;4960482;28;20231;-82
2022/06/18 00:14:33;;;;;;;1.40;1.30;;;;;;;20.12;54.20;101144.66;4960057;29;20588;-81
2022/06/18 00:16:59;;;;;;;1.10;1.10;;;;;;;20.04;54.44;101093.81;4960756;28;20217;-81
2022/06/18 00:19:26;;;;;;;1.33;1.20;;;;;;;20.02;54.15;101109.78;4960381;28;20292;-81
2022/06/18 00:21:53;;;;;;;1.30;1.20;;;;;;;19.97;53.89;101095.03;4960217;28;20216;-81
2022/06/18 00:24:21;;;;;;;1.50;1.40;;;;;;;19.99;50.98;101103.75;4960141;28;20279;-82
2022/06/18 00:26:49;;;;;;;2.10;1.73;;;;;;;20.00;53.18;101129.34;4960670;28;20675;-83
2022/06/18 00:29:18;;;;;;;1.20;1.10;;;;;;;19.93;54.28;101093.47;4959512;28;20233;-82
2022/06/18 00:31:45;;;;;;;1.63;1.20;;;;;;;19.91;54.23;101085.56;4960194;28;20695;-82
2022/06/18 00:34:12;;;;;;;1.20;1.20;;;;;;;19.95;53.93;101094.25;4960004;28;20214;-81
2022/06/18 00:36:41;;;;;;;1.47;1.37;;;;;;;19.95;53.97;101081.00;4959875;28;20308;-81
2022/06/18 00:39:10;;;;;;;2.03;1.30;;;;;;;20.04;52.83;101122.97;4960626;28;20252;-83
2022/06/18 00:41:40;;;;;;;1.40;1.30;;;;;;;19.99;53.49;101101.97;4960720;28;20668;-82
2022/06/18 00:44:19;;;;;;;1.67;1.30;;;;;;;19.98;53.76;101124.13;4961318;28;20291;-81
2022/06/18 00:46:57;;;;;;;2.00;1.40;;;;;;;19.97;54.39;101087.06;4960440;28;20213;-82
2022/06/18 00:49:26;;;;;;;1.40;1.30;;;;;;;19.95;53.91;101065.09;4960122;28;20232;-82
2022/06/18 00:51:57;;;;;;;1.40;1.30;;;;;;;19.98;53.59;101094.06;4959989;28;20797;-82
2022/06/18 00:54:30;;;;;;;1.30;1.20;;;;;;;19.98;52.18;101108.22;4960271;28;20208;-83
2022/06/18 00:57:03;;;;;;;1.30;1.20;;;;;;;20.07;53.56;101106.06;4960089;28;20226;-83
2022/06/18 00:59:37;;;;;;;1.50;1.40;;;;;;;19.99;53.47;101096.66;4960119;28;20321;-82
2022/06/18 01:02:04;;;;;;;1.23;1.23;;;;;;;19.99;54.97;101072.81;4960018;28;20213;-82
2022/06/18 01:04:33;;;;;;;1.53;1.43;;;;;;;19.95;54.93;101046.53;4960198;28;20208;-80
2022/06/18 01:07:04;;;;;;;1.33;1.30;;;;;;;19.89;53.15;101047.69;4959033;28;20205;-82
2022/06/18 01:09:31;;;;;;;2.17;1.70;;;;;;;19.96;54.64;101080.94;4960002;28;20265;-82
2022/06/18 01:11:59;;;;;;;1.63;1.53;;;;;;;19.96;53.75;101019.09;4959875;28;20280;-82
2022/06/18 01:14:27;;;;;;;1.30;1.30;;;;;;;19.93;54.53;101040.47;4959753;28;20212;-82
2022/06/18 01:16:59;;;;;;;1.87;1.20;;;;;;;19.84;54.64;101039.97;4959975;28;20213;-82
2022/06/18 01:19:31;;;;;;;1.67;1.57;;;;;;;19.82;55.07;101015.34;4960006;28;20225;-82
2022/06/18 01:22:07;;;;;;;1.53;1.40;;;;;;;19.75;54.33;101021.84;4960179;28;20212;-81
2022/06/18 01:24:38;;;;;;;1.37;1.27;;;;;;;19.83;54.01;101045.34;4959211;28;20206;-81
2022/06/18 01:27:07;;;;;;;1.57;1.47;;;;;;;19.83;54.78;101043.53;4959477;28;20212;-82
2022/06/18 01:29:34;;;;;;;1.40;1.30;;;;;;;19.82;55.50;101022.41;4959427;28;20587;-81
2022/06/18 01:32:01;;;;;;;2.13;1.63;;;;;;;19.77;55.18;100997.94;4960172;28;20232;-82
2022/06/18 01:34:29;;;;;;;2.67;1.37;;;;;;;19.77;51.07;100974.97;4959809;28;20750;-80
2022/06/18 01:36:57;;;;;;;1.67;1.40;;;;;;;19.84;53.68;101060.28;4959236;28;20683;-82
2022/06/18 01:39:28;;;;;;;6.10;1.60;;;;;;;19.89;54.42;101041.53;4960048;28;20232;-83
2022/06/18 01:42:00;;;;;;;2.13;1.40;;;;;;;19.88;54.71;101015.97;4959977;28;20632;-83
2022/06/18 01:44:35;;;;;;;1.40;1.30;;;;;;;19.85;53.31;100987.84;4961157;28;20627;-82
2022/06/18 01:47:07;;;;;;;1.63;1.43;;;;;;;19.84;53.56;101033.78;4960841;28;20235;-83
2022/06/18 01:49:40;;;;;;;1.40;1.30;;;;;;;19.82;53.44;101025.94;4959635;28;20229;-81
2022/06/18 01:52:09;;;;;;;1.97;1.77;;;;;;;19.81;52.94;101039.25;4962511;28;20620;-83
2022/06/18 01:54:41;;;;;;;1.40;1.30;;;;;;;19.91;51.86;101077.63;4956015;29;20320;-83
2022/06/18 01:57:14;;;;;;;1.73;1.63;;;;;;;19.86;53.68;101055.81;4964741;28;20211;-82
2022/06/18 01:59:44;;;;;;;1.80;1.70;;;;;;;19.92;52.09;101057.28;4965543;28;20233;-83
2022/06/18 02:02:11;;;;;;;1.90;1.30;;;;;;;19.94;51.53;101051.00;4965817;28;20809;-80
2022/06/18 02:04:38;;;;;;;1.10;1.10;;;;;;;19.93;51.65;101053.72;4964684;28;20680;-83
2022/06/18 02:07:07;;;;;;;2.07;1.53;;;;;;;19.95;51.88;101063.28;4961574;28;20207;-82
2022/06/18 02:09:40;;;;;;;1.50;1.40;;;;;;;19.94;50.99;101045.69;4971468;28;20258;-80
2022/06/18 02:12:12;;;;;;;1.57;1.33;;;;;;;19.95;53.78;101059.78;4972418;28;20232;-81
2022/06/18 02:14:41;;;;;;;1.13;1.07;;;;;;;19.92;53.84;101031.66;4971913;28;20209;-82
2022/06/18 02:17:10;;;;;;;1.57;1.20;;;;;;;19.78;52.42;100962.56;4966167;28;20276;-82
2022/06/18 02:19:39;;;;;;;1.63;1.40;;;;;;;19.77;51.10;100988.22;4955122;28;20229;-81
2022/06/18 02:22:09;;;;;;;1.40;1.30;;;;;;;19.79;52.34;101038.47;4954516;28;20216;-80
2022/06/18 02:24:35;;;;;;;1.23;1.23;;;;;;;19.73;52.91;100994.59;4947608;29;20673;-81
2022/06/18 02:27:02;;;;;;;1.50;1.27;;;;;;;19.81;53.64;101020.72;4954387;28;20201;-81
2022/06/18 02:29:32;;;;;;;1.30;1.20;;;;;;;19.77;52.75;100971.47;4954284;28;20237;-81
2022/06/18 02:32:02;;;;;;;3.13;1.23;;;;;;;19.66;54.83;100985.19;4964470;28;20282;-81
2022/06/18 02:34:31;;;;;;;1.77;1.50;;;;;;;19.65;54.71;100964.94;4960945;28;20600;-80
2022/06/18 02:37:01;;;;;;;1.23;1.20;;;;;;;19.63;55.01;100950.91;4962953;28;20203;-82
2022/06/18 02:39:36;;;;;;;1.47;1.30;;;;;;;19.58;53.86;100968.81;4960167;28;20223;-81
2022/06/18 02:42:06;;;;;;;1.40;1.30;;;;;;;19.59;52.36;100979.31;4962898;28;20208;-80
2022/06/18 02:44:34;;;;;;;1.50;1.40;;;;;;;19.62;54.38;100983.59;4963675;28;20256;-80
2022/06/18 02:47:06;;;;;;;1.20;1.20;;;;;;;19.53;54.56;100986.72;4964534;28;20227;-81
2022/06/18 02:49:34;;;;;;;1.43;1.33;;;;;;;19.55;55.04;100971.63;4961318;28;20231;-81
2022/06/18 02:52:02;;;;;;;1.93;1.57;;;;;;;19.50;54.44;100955.94;4962318;28;20224;-81
2022/06/18 02:54:28;;;;;;;1.67;1.40;;;;;;;19.50;55.23;100940.03;4962096;28;20216;-80
2022/06/18 02:56:55;;;;;;;1.20;1.20;;;;;;;19.43;54.28;100957.16;4962320;28;20254;-80
2022/06/18 02:59:21;;;;;;;1.40;1.30;;;;;;;19.48;53.92;100972.81;4963756;28;20718;-80
2022/06/18 03:01:49;;;;;;;1.40;1.30;;;;;;;19.50;55.23;100968.31;4964862;28;20247;-80
2022/06/18 03:04:15;;;;;;;1.47;1.37;;;;;;;19.53;53.43;100962.88;4963424;28;20204;-80
2022/06/18 03:06:41;;;;;;;1.53;1.43;;;;;;;19.58;53.70;100958.22;4963409;28;20251;-80
2022/06/18 03:09:10;;;;;;;1.23;1.20;;;;;;;19.58;55.02;100963.50;4962401;28;20762;-83
2022/06/18 03:14:21;;;;;;;1.30;1.20;;;;;;;19.50;54.84;100952.44;4968846;28;20645;-82
2022/06/18 03:16:49;;;;;;;4.03;1.27;;;;;;;19.45;54.89;100973.84;4968100;28;20682;-84
2022/06/18 03:19:26;;;;;;;1.33;1.17;;;;;;;19.53;54.04;100976.13;4969015;28;20340;-83
2022/06/18 03:21:56;;;;;;;2.33;1.37;;;;;;;19.49;54.96;100961.31;4967489;28;20211;-82
2022/06/18 03:24:22;;;;;;;1.20;1.10;;;;;;;19.47;54.47;100956.09;4965835;28;20233;-80
2022/06/18 03:26:49;;;;;;;1.50;1.40;;;;;;;19.44;54.43;100932.38;4959551;28;20612;-80
2022/06/18 03:29:16;;;;;;;2.10;1.23;;;;;;;19.53;54.66;100947.00;4964462;28;20309;-79
2022/06/18 03:31:42;;;;;;;1.53;1.40;;;;;;;19.56;55.21;100931.81;4966865;28;20323;-80
2022/06/18 03:34:10;;;;;;;1.73;1.53;;;;;;;19.58;52.55;100902.59;4969179;28;20250;-78
2022/06/18 03:36:37;;;;;;;1.10;1.10;;;;;;;19.62;53.83;100942.13;4969339;28;20250;-79
2022/06/18 03:39:04;;;;;;;1.30;1.30;;;;;;;19.63;53.55;100935.88;4965017;28;20224;-81
2022/06/18 03:41:31;;;;;;;1.50;1.40;;;;;;;19.72;54.10;100950.50;4958742;28;20207;-80
2022/06/18 03:43:57;;;;;;;1.10;1.10;;;;;;;19.75;53.79;100960.09;4957883;28;20553;-80
2022/06/18 03:46:23;;;;;;;1.90;1.40;;;;;;;19.78;54.00;100975.81;4957842;28;20219;-80
2022/06/18 03:48:53;;;;;;;2.57;1.40;;;;;;;19.81;54.31;100962.44;4958104;28;20228;-80
2022/06/18 03:51:22;;;;;;;1.90;1.20;;;;;;;19.82;54.67;100964.13;4957909;28;20232;-79
2022/06/18 03:53:49;;;;;;;1.67;1.40;;;;;;;19.86;55.10;100944.53;4957988;28;20209;-81
2022/06/18 03:56:19;;;;;;;1.33;1.20;;;;;;;19.87;55.22;100895.03;4958150;28;20196;-81
2022/06/18 03:58:46;;;;;;;1.23;1.10;;;;;;;19.84;54.74;100904.84;4957809;28;20228;-81
2022/06/18 04:01:15;;;;;;;5.07;1.40;;;;;;;19.84;55.14;100912.81;4957762;28;20208;-81
2022/06/18 04:03:41;;;;;;;1.40;1.30;;;;;;;19.78;56.74;100877.78;4957842;28;20205;-80
2022/06/18 04:06:09;;;;;;;1.60;1.50;;;;;;;19.65;57.64;100878.38;4957447;28;20208;-81
2022/06/18 04:08:37;;;;;;;1.30;1.20;;;;;;;19.75;56.57;100877.97;4957783;28;20233;-81
2022/06/18 04:11:04;;;;;;;1.33;1.23;;;;;;;19.78;57.74;100851.31;4957673;28;20236;-80
2022/06/18 04:13:30;;;;;;;1.47;1.37;;;;;;;19.75;56.76;100852.31;4957630;28;20208;-80
2022/06/18 04:15:57;;;;;;;1.20;1.10;;;;;;;19.78;58.10;100853.94;4957429;28;20743;-80
2022/06/18 04:18:23;;;;;;;1.30;1.20;;;;;;;19.83;54.66;100820.16;4957393;28;20233;-80
2022/06/18 04:20:50;;;;;;;1.50;1.40;;;;;;;19.91;56.24;100878.91;4957363;28;20625;-80
2022/06/18 04:23:16;;;;;;;1.37;1.27;;;;;;;19.96;56.67;100870.69;4957673;28;20254;-81
2022/06/18 04:25:44;;;;;;;1.40;1.30;;;;;;;20.00;55.83;100859.03;4957407;28;20236;-80
2022/06/18 04:28:11;;;;;;;1.87;1.20;;;;;;;20.12;54.15;100921.13;4959364;28;20217;-82
2022/06/18 04:30:37;;;;;;;1.40;1.30;;;;;;;20.16;55.22;100928.88;4962176;28;20205;-82
2022/06/18 04:33:04;;;;;;;1.30;1.20;;;;;;;20.22;55.87;100891.44;4962387;28;20235;-82
2022/06/18 04:35:30;;;;;;;1.73;1.20;;;;;;;20.27;54.71;100907.09;4962296;28;20228;-82
2022/06/18 04:37:57;;;;;;;1.63;1.30;;;;;;;20.27;56.49;100912.41;4961844;28;20296;-83
2022/06/18 04:40:31;;;;;;;1.50;1.40;;;;;;;20.29;56.17;100899.06;4962988;28;20613;-83
2022/06/18 04:42:59;;;;;;;1.60;1.13;;;;;;;20.32;54.51;100862.66;4962719;28;20208;-83
2022/06/18 04:45:26;;;;;;;1.27;1.17;;;;;;;20.41;55.84;100922.28;4963128;28;20259;-82
2022/06/18 04:47:53;;;;;;;1.20;1.10;;;;;;;20.44;57.21;100885.00;4962673;28;20585;-82
2022/06/18 04:50:27;;;;;;;1.57;1.30;;;;;;;20.40;55.19;100900.22;4963022;28;20240;-83
2022/06/18 04:52:53;;;;;;;1.70;1.20;;;;;;;20.39;57.27;100855.22;4978264;28;20228;-82
2022/06/18 04:55:20;;;;;;;1.40;1.30;;;;;;;20.36;56.12;100853.59;4981120;28;20195;-80
2022/06/18 04:57:46;;;;;;;2.17;1.50;;;;;;;20.40;56.99;100852.47;4981158;28;20248;-80
2022/06/18 05:00:16;;;;;;;1.67;1.57;;;;;;;20.48;57.05;100896.31;4969000;28;20789;-80
2022/06/18 05:02:43;;;;;;;2.40;1.33;;;;;;;20.53;54.33;100857.13;4957784;28;20209;-80
2022/06/18 05:05:25;;;;;;;1.30;1.23;;;;;;;20.67;54.05;100920.06;4958630;28;20209;-82
2022/06/18 05:07:51;;;;;;;1.50;1.40;;;;;;;20.78;52.98;100936.28;4956876;28;20212;-82
2022/06/18 05:10:18;;;;;;;1.07;1.03;;;;;;;20.85;54.52;100918.22;4956887;28;20267;-80
2022/06/18 05:12:45;;;;;;;1.40;1.30;;;;;;;20.91;56.34;100908.16;4956530;28;20711;-79
2022/06/18 05:15:12;;;;;;;2.80;1.70;;;;;;;20.98;52.72;100953.78;4956822;28;20209;-81
2022/06/18 05:17:43;;;;;;;2.77;1.60;;;;;;;21.09;53.11;100972.66;4957015;28;20295;-80
2022/06/18 05:20:13;;;;;;;1.50;1.40;;;;;;;21.19;52.79;100978.31;4957064;28;20228;-80
2022/06/18 05:22:40;;;;;;;1.77;1.67;;;;;;;21.26;52.13;100986.78;4956952;28;20625;-80
2022/06/18 05:25:08;;;;;;;2.60;1.30;;;;;;;21.33;52.16;100993.50;4956682;28;20220;-81
2022/06/18 05:27:35;;;;;;;1.63;1.53;;;;;;;21.36;51.50;101004.78;4956851;28;20213;-80
2022/06/18 05:30:02;;;;;;;1.87;1.50;;;;;;;21.47;51.91;101014.88;4956294;28;20225;-80
2022/06/18 05:32:30;;;;;;;1.80;1.43;;;;;;;21.49;52.60;100998.84;4956635;28;20224;-80
2022/06/18 05:34:58;;;;;;;2.80;1.33;;;;;;;21.55;52.95;100993.19;4956641;28;20253;-82
2022/06/18 05:37:27;;;;;;;1.70;1.60;;;;;;;21.58;52.20;100980.56;4956474;28;20213;-79
2022/06/18 05:39:54;;;;;;;1.40;1.30;;;;;;;21.61;55.82;100947.66;4956501;28;20260;-80
2022/06/18 05:42:21;;;;;;;1.70;1.57;;;;;;;21.56;53.65;100929.31;4956623;28;20205;-80
2022/06/18 05:44:48;;;;;;;1.27;1.17;;;;;;;21.60;55.61;100937.97;4956159;28;20211;-80
2022/06/18 05:47:15;;;;;;;1.43;1.33;;;;;;;21.57;54.82;100895.66;4956503;28;20204;-80
2022/06/18 05:49:43;;;;;;;1.73;1.57;;;;;;;21.62;53.72;100938.75;4958847;28;20774;-81
2022/06/18 05:52:10;;;;;;;1.70;1.53;;;;;;;21.70;54.32;100923.22;4959509;28;20256;-81
2022/06/18 05:54:37;;;;;;;1.20;1.20;;;;;;;21.75;54.86;100904.38;4952120;29;20224;-82
2022/06/18 05:57:05;;;;;;;2.20;1.60;;;;;;;21.82;53.88;100932.28;4956966;28;20209;-78
2022/06/18 05:59:31;;;;;;;1.90;1.43;;;;;;;21.85;52.88;100947.22;4955913;28;20224;-82
2022/06/18 06:01:58;;;;;;;2.10;1.43;;;;;;;21.92;53.07;100949.41;4956039;28;20268;-79
2022/06/18 06:04:24;;;;;;;1.60;1.50;;;;;;;21.99;52.18;100960.53;4959021;28;20264;-83
2022/06/18 06:06:51;;;;;;;1.50;1.40;;;;;;;22.11;52.66;100977.59;4959346;28;20747;-81
2022/06/18 06:12:01;;;;;;;3.10;1.57;;;;;;;22.28;52.01;100982.81;4959107;29;20248;-81
2022/06/18 06:14:27;;;;;;;2.37;1.50;;;;;;;22.38;52.84;100968.00;4959150;28;20283;-82
2022/06/18 06:16:54;;;;;;;2.33;1.77;;;;;;;22.45;52.30;100981.78;4961278;28;20271;-83
2022/06/18 06:19:20;;;;;;;1.97;1.80;;;;;;;22.49;51.55;100972.66;4961300;28;20244;-81
2022/06/18 06:21:46;;;;;;;1.60;1.50;;;;;;;22.56;52.25;100987.31;4961412;28;20204;-81
2022/06/18 06:24:13;;;;;;;2.00;1.90;;;;;;;22.63;51.83;100986.94;4961790;28;20256;-83
2022/06/18 06:26:40;;;;;;;2.33;2.00;;;;;;;22.66;52.53;100978.78;4961385;28;20209;-82
2022/06/18 06:29:07;;;;;;;3.53;1.80;;;;;;;22.68;51.69;100963.56;4961081;28;20225;-81
2022/06/18 06:31:33;;;;;;;1.90;1.70;;;;;;;22.75;51.97;100981.72;4961721;28;20212;-80
2022/06/18 06:34:00;;;;;;;2.70;1.77;;;;;;;22.78;52.29;100957.56;4960960;28;20215;-82
2022/06/18 06:36:26;;;;;;;2.30;1.87;;;;;;;22.85;52.04;100960.69;4960244;28;20236;-82
2022/06/18 06:38:52;;;;;;;2.30;2.10;;;;;;;22.89;52.52;100954.22;4960108;28;20229;-82
2022/06/18 06:41:22;;;;;;;3.17;1.80;;;;;;;22.93;52.24;100950.47;4960884;28;20252;-82
2022/06/18 06:43:51;;;;;;;2.10;2.00;;;;;;;23.01;52.47;100947.28;4960653;28;20204;-83
2022/06/18 06:46:18;;;;;;;1.97;1.80;;;;;;;23.03;52.65;100945.41;4954275;28;20749;-80
2022/06/18 06:48:45;;;;;;;2.67;1.77;;;;;;;23.11;53.33;100942.28;4955404;28;20723;-79
2022/06/18 06:51:14;;;;;;;3.07;1.77;;;;;;;23.14;52.55;100956.25;4953624;28;20232;-80
2022/06/18 06:53:41;;;;;;;2.47;2.27;;;;;;;23.20;52.07;100958.53;4955067;28;20229;-80
2022/06/18 06:58:55;;;;;;;2.27;2.17;;;;;;;23.35;52.35;100953.19;4954771;29;20717;-79
2022/06/18 07:01:22;;;;;;;2.03;1.90;;;;;;;23.44;52.92;100946.41;4955657;28;20268;-82
2022/06/18 07:03:48;;;;;;;2.40;2.27;;;;;;;23.48;53.75;100934.59;4954898;28;20201;-80
2022/06/18 07:06:16;;;;;;;2.40;2.30;;;;;;;23.53;52.32;100928.00;4954271;28;20220;-79
2022/06/18 07:08:43;;;;;;;5.50;2.27;;;;;;;23.59;51.79;100959.56;4955094;28;20237;-81
2022/06/18 07:11:10;;;;;;;2.50;2.10;;;;;;;23.65;52.64;100957.47;4955061;28;20267;-80
2022/06/18 07:13:36;;;;;;;2.80;2.13;;;;;;;23.67;52.70;100944.91;4953375;28;20267;-81
2022/06/18 07:16:05;;;;;;;4.17;2.50;;;;;;;23.68;52.14;100947.44;4955032;28;20615;-80
2022/06/18 07:18:35;;;;;;;3.00;2.50;;;;;;;23.78;51.78;100964.59;4955220;28;20228;-81
2022/06/18 07:21:03;;;;;;;2.90;2.50;;;;;;;23.86;52.12;100969.41;4955791;28;20667;-81
2022/06/18 07:23:30;;;;;;;2.70;2.50;;;;;;;23.92;51.49;100969.00;4955932;28;20689;-81
2022/06/18 07:25:57;;;;;;;2.60;2.40;;;;;;;24.02;51.89;100965.72;4960967;28;20212;-82
2022/06/18 07:28:24;;;;;;;3.00;2.37;;;;;;;24.01;50.85;100961.34;4964563;28;20229;-82
2022/06/18 07:30:51;;;;;;;4.80;3.20;;;;;;;24.11;51.35;100983.78;4965427;28;20196;-82
2022/06/18 07:33:21;;;;;;;3.37;2.67;;;;;;;24.13;51.06;100980.03;4955784;28;20221;-81
2022/06/18 07:35:48;;;;;;;2.83;2.63;;;;;;;24.14;51.14;100944.41;4956237;28;20204;-80
2022/06/18 07:38:15;;;;;;;2.57;2.33;;;;;;;24.26;50.76;100973.88;4956774;28;20648;-80
2022/06/18 07:40:47;;;;;;;3.27;2.97;;;;;;;24.31;51.09;100985.09;4962542;28;20256;-83
2022/06/18 07:43:18;;;;;;;3.07;2.80;;;;;;;24.32;51.02;100961.00;4957803;28;20204;-81
2022/06/18 07:45:46;;;;;;;3.50;3.20;;;;;;;24.43;51.08;100986.06;4956991;28;20649;-81
2022/06/18 07:48:13;;;;;;;3.40;2.63;;;;;;;24.48;50.98;100971.47;4956256;28;20208;-79
2022/06/18 07:50:43;;;;;;;3.40;3.10;;;;;;;24.57;52.25;100951.31;4956931;28;20227;-81
2022/06/18 07:53:15;;;;;;;2.77;2.57;;;;;;;24.53;50.35;100945.31;4956837;28;20604;-82
2022/06/18 07:55:41;;;;;;;6.73;3.10;;;;;;;24.59;50.60;100981.41;4956339;28;20204;-82
2022/06/18 07:58:08;;;;;;;3.10;2.80;;;;;;;24.70;51.37;100981.53;4956908;28;20268;-82
2022/06/18 08:00:35;;;;;;;5.83;3.10;;;;;;;24.78;51.06;100963.16;4956144;28;20209;-81
2022/06/18 08:03:05;;;;;;;3.00;2.80;;;;;;;24.91;50.93;100959.59;4956010;28;20210;-83
2022/06/18 08:05:32;;;;;;;4.40;2.97;;;;;;;24.86;50.30;100980.47;4956916;28;20247;-81
2022/06/18 08:08:00;;;;;;;4.83;2.80;;;;;;;24.97;50.08;100985.88;4956580;28;20223;-81
2022/06/18 08:10:27;;;;;;;3.00;2.80;;;;;;;24.98;50.90;100987.59;4956838;28;20269;-82
2022/06/18 08:12:54;;;;;;;3.57;2.87;;;;;;;25.07;51.40;100964.72;4957112;28;20302;-82
2022/06/18 08:15:21;;;;;;;3.23;3.03;;;;;;;25.11;51.56;100948.38;4970360;28;20244;-81
2022/06/18 08:17:47;;;;;;;3.53;3.20;;;;;;;25.13;50.07;100965.16;4977801;28;20257;-81
2022/06/18 08:20:14;;;;;;;3.73;3.37;;;;;;;25.19;50.47;100966.50;4981276;28;20225;-82
2022/06/18 08:22:45;;;;;;;3.93;3.53;;;;;;;25.34;51.84;100968.09;4978158;28;20203;-80
2022/06/18 08:25:14;;;;;;;3.33;3.03;;;;;;;25.45;51.18;100943.28;4968745;28;20205;-82
2022/06/18 08:27:42;;;;;;;4.30;3.20;;;;;;;25.54;51.31;100939.06;4967720;28;20205;-79
2022/06/18 08:30:10;;;;;;;5.97;3.47;;;;;;;25.61;51.19;100961.72;4966731;28;20307;-82
2022/06/18 08:32:37;;;;;;;4.93;3.60;;;;;;;25.57;49.33;100968.25;4966580;28;20714;-80
2022/06/18 08:35:04;;;;;;;3.80;3.03;;;;;;;25.62;49.79;100983.94;4967903;28;20667;-80
2022/06/18 08:37:30;;;;;;;3.20;3.00;;;;;;;25.74;49.84;100970.50;4968912;28;20263;-79
2022/06/18 08:39:58;;;;;;;4.07;3.77;;;;;;;25.83;49.99;100977.00;4966379;28;20235;-81
2022/06/18 08:42:37;;;;;;;3.23;3.03;;;;;;;25.88;49.08;100987.34;4965372;28;20201;-79
2022/06/18 08:45:28;;;;;;;3.70;3.40;;;;;;;25.89;50.08;101024.69;4964035;28;20203;-79
2022/06/18 08:48:12;;;;;;;3.80;3.50;;;;;;;25.95;49.40;101018.06;4967322;28;20663;-80
2022/06/18 08:51:00;;;;;;;4.77;3.20;;;;;;;26.05;49.97;101000.34;4969024;28;20227;-79
2022/06/18 08:53:57;;;;;;;3.93;3.53;;;;;;;26.16;49.77;100999.53;4963774;28;20236;-80
2022/06/18 08:56:33;;;;;;;3.97;3.63;;;;;;;26.29;49.24;100986.94;4280619;28;10001969;-79
2022/06/18 08:59:12;;;;;;;3.90;3.40;;;;;;;26.27;49.25;100996.06;4967162;28;20220;-79
2022/06/18 09:01:43;;;;;;;4.07;3.47;;;;;;;26.39;49.12;101010.34;4966623;28;20212;-79
2022/06/18 09:04:23;;;;;;;3.57;3.33;;;;;;;26.40;49.73;101001.31;4967081;28;20200;-81
2022/06/18 09:07:14;;;;;;;5.47;3.50;;;;;;;26.33;48.53;101009.81;4964636;28;20675;-81
2022/06/18 09:09:49;;;;;;;3.60;3.40;;;;;;;26.48;49.68;100990.88;4969915;28;20917;-82
2022/06/18 09:12:19;;;;;;;4.10;3.77;;;;;;;26.65;50.47;100990.44;4977116;28;20212;-81
2022/06/18 09:14:51;;;;;;;7.23;4.30;;;;;;;26.71;48.50;101007.88;4976677;28;20251;-80
2022/06/18 09:17:22;;;;;;;5.43;3.80;;;;;;;26.76;48.08;101027.13;4977279;28;20220;-81
2022/06/18 09:19:58;;;;;;;4.80;4.30;;;;;;;26.83;48.05;101020.28;4977078;28;20231;-80
2022/06/18 09:22:27;;;;;;;4.60;4.30;;;;;;;26.90;47.52;101034.91;4975002;28;20813;-81
2022/06/18 09:24:59;;;;;;;4.57;4.03;;;;;;;27.02;47.91;101046.50;4957810;28;20200;-82
2022/06/18 09:27:27;;;;;;;5.23;4.20;;;;;;;27.13;47.66;101054.53;4957330;28;20268;-81
2022/06/18 09:30:02;;;;;;;5.93;4.23;;;;;;;27.09;46.89;101076.34;4956853;28;20236;-82
2022/06/18 09:32:35;;;;;;;4.23;3.80;;;;;;;27.12;47.23;101063.56;4958007;28;20236;-81
2022/06/18 09:35:06;;;;;;;4.67;3.87;;;;;;;27.20;48.45;101041.50;4958153;28;20259;-82
2022/06/18 09:37:42;;;;;;;7.23;4.63;;;;;;;27.31;47.31;101043.34;4957145;28;20256;-80
2022/06/18 09:40:14;;;;;;;4.77;4.30;;;;;;;27.33;47.52;101058.38;4956925;28;20240;-81
2022/06/18 09:42:48;;;;;;;4.60;4.07;;;;;;;27.36;47.09;101064.47;4966243;28;20255;-81
2022/06/18 09:45:21;;;;;;;4.57;4.07;;;;;;;27.40;47.71;101058.72;4963195;28;20212;-82
2022/06/18 09:47:49;;;;;;;4.03;3.70;;;;;;;27.50;47.20;101038.22;4957428;28;20217;-81
2022/06/18 09:50:22;;;;;;;4.50;4.20;;;;;;;27.50;46.97;101056.16;4955116;28;20265;-81
2022/06/18 09:52:52;;;;;;;6.40;4.47;;;;;;;27.58;47.42;101063.56;4956241;28;20236;-82
2022/06/18 09:55:23;;;;;;;4.57;4.20;;;;;;;27.66;46.83;101056.59;4955863;28;20276;-81
2022/06/18 09:57:55;;;;;;;6.53;4.57;;;;;;;27.72;46.05;101069.50;4956330;28;20232;-80
2022/06/18 10:00:25;;;;;;;4.63;4.23;;;;;;;27.90;47.11;101050.25;4955490;28;20687;-81
2022/06/18 10:03:02;;;;;;;4.60;4.20;;;;;;;28.08;45.05;101034.44;4957455;28;20279;-80
2022/06/18 10:08:19;;;;;;;6.43;4.13;;;;;;;28.08;43.82;101147.19;4956742;29;20305;-80
2022/06/18 10:11:07;;;;;;;7.13;5.17;;;;;;;28.19;44.17;101147.16;4957183;28;20327;-80
2022/06/18 10:13:40;;;;;;;6.17;4.83;;;;;;;28.22;44.29;101125.41;4956784;28;20228;-79
2022/06/18 10:16:20;;;;;;;8.57;5.07;;;;;;;28.32;44.36;101125.50;4957199;28;20357;-80
2022/06/18 10:18:56;;;;;;;4.80;4.37;;;;;;;28.21;44.28;101126.41;4956426;28;20723;-80
2022/06/18 10:21:31;;;;;;;6.17;4.97;;;;;;;28.30;44.33;101138.22;4956353;28;20223;-80
2022/06/18 10:24:04;;;;;;;7.40;5.00;;;;;;;28.45;44.51;101128.88;4955691;28;20826;-80
2022/06/18 10:26:38;;;;;;;5.00;4.43;;;;;;;28.46;44.81;101119.84;4948491;29;20209;-80
2022/06/18 10:29:14;;;;;;;7.30;4.30;;;;;;;28.54;44.26;101099.56;4954959;28;20229;-79
2022/06/18 10:31:52;;;;;;;9.60;5.33;;;;;;;28.69;44.96;101112.56;4955810;28;20212;-79
2022/06/18 10:34:33;;;;;;;5.77;5.27;;;;;;;28.68;43.24;101140.41;4956161;28;20228;-79
2022/06/18 10:37:10;;;;;;;5.10;4.60;;;;;;;28.91;43.68;101134.91;4957041;28;20220;-79
2022/06/18 10:39:45;;;;;;;5.40;5.00;;;;;;;28.94;44.17;101150.78;4955343;28;20239;-80
2022/06/18 10:42:35;;;;;;;5.07;4.40;;;;;;;28.98;42.52;101141.47;4956138;28;20902;-79
2022/06/18 10:45:13;;;;;;;6.13;4.77;;;;;;;28.97;43.37;101136.22;4955349;29;20829;-79
2022/06/18 10:47:46;;;;;;;7.83;5.00;;;;;;;28.96;42.31;101151.50;4955813;28;20847;-80
2022/06/18 10:50:16;;;;;;;5.40;4.90;;;;;;;29.00;42.29;101162.81;4956833;28;20649;-79
2022/06/18 10:52:44;;;;;;;6.70;5.10;;;;;;;29.12;42.75;101151.06;4956379;28;20224;-80
2022/06/18 10:55:16;;;;;;;6.03;5.17;;;;;;;29.14;42.16;101145.53;4956378;29;20213;-79
2022/06/18 10:57:43;;;;;;;6.77;5.20;;;;;;;29.06;41.91;101165.88;4956298;28;20230;-80
2022/06/18 11:00:17;;;;;;;5.23;4.60;;;;;;;29.26;42.27;101148.03;4957243;28;20232;-79
2022/06/18 11:02:47;;;;;;;5.57;5.17;;;;;;;29.35;42.24;101167.03;4956468;28;20577;-79
2022/06/18 11:05:26;;;;;;;6.13;5.10;;;;;;;29.52;42.62;101147.59;4956557;28;20217;-79
2022/06/18 11:07:54;;;;;;;5.30;4.90;;;;;;;29.45;41.15;101165.25;4956602;28;20212;-79
2022/06/18 11:10:44;;;;;;;5.40;4.90;;;;;;;29.50;40.98;101149.56;4956122;28;20220;-78
2022/06/18 11:13:20;;;;;;;5.20;4.77;;;;;;;29.47;40.37;101177.59;4953929;28;20256;-78
2022/06/18 11:15:46;;;;;;;8.57;5.90;;;;;;;29.57;40.40;101193.75;4956598;28;20263;-79
2022/06/18 11:18:18;;;;;;;6.13;5.53;;;;;;;29.65;40.47;101190.41;4955935;28;20212;-80
2022/06/18 11:20:59;;;;;;;8.10;5.30;;;;;;;29.65;40.09;101183.22;4956045;28;20237;-79
2022/06/18 11:23:26;;;;;;;10.80;4.90;;;;;;;29.65;39.69;101231.66;4956275;28;20268;-78
2022/06/18 11:25:56;;;;;;;7.73;4.70;;;;;;;29.65;39.81;101210.13;4957299;28;20298;-78
2022/06/18 11:28:29;;;;;;;5.30;4.80;;;;;;;29.75;39.63;101201.25;4956027;28;20666;-80
2022/06/18 11:30:57;;;;;;;5.73;5.10;;;;;;;29.85;40.02;101196.75;4955634;28;20234;-79
2022/06/18 11:33:30;;;;;;;8.43;5.43;;;;;;;30.05;39.71;101213.81;4955495;28;20962;-79
2022/06/18 11:35:58;;;;;;;6.03;5.03;;;;;;;30.33;38.53;101219.44;4955807;28;20208;-79
2022/06/18 11:38:29;;;;;;;5.47;5.00;;;;;;;30.77;38.24;101222.63;4954728;28;20643;-80
2022/06/18 11:40:59;;;;;;;5.30;4.67;;;;;;;31.12;36.53;101238.28;4956085;28;20790;-78
2022/06/18 11:43:39;;;;;;;6.80;4.87;;;;;;;30.99;36.18;101305.97;4955262;28;20216;-78
2022/06/18 11:46:09;;;;;;;5.40;4.53;;;;;;;31.32;36.71;101300.28;4955227;28;20216;-79
2022/06/18 11:48:42;;;;;;;5.63;5.07;;;;;;;31.75;36.41;101294.41;4954705;28;20239;-80
2022/06/18 11:51:13;;;;;;;8.47;4.90;;;;;;;31.81;35.55;101290.25;4955433;28;20276;-80